Terminal Aerodrome Forecast
Issued by NWS Portland, ME

Home | Current Version | Previous Version | Text Only | Print | Product List | Glossary On
Versions: 1 2 3 4 5 6 7 8 9 10 11 12 13 14 15 16 17 18 19 20 21 22 23 24 25 26 27 28 29 30 31 32 33 34 35 36 37 38
987
FTUS41 KGYX 240901 AAC
TAFPWM
TAF AMD
KPWM 240901Z 2409/2506 03017G27KT 4SM FZRA OVC060 WS015/09040KT
      TEMPO 2409/2412 2SM -PL BR OVC025
     FM241200 05018G26KT 2SM -FZRA OVC015 WS015/07050KT
     FM241400 04015G23KT 3SM +RA OVC007
     FM250000 01018G26KT 3/4SM -DZ BR OVC003=

USA.gov is the U.S. government's official web portal to all federal, state and local government web resources and services.